SKW5628 KMRY-KSFO
Flight info
| Callsign | SKW5628 |
|---|---|
| Flight time | 0h 17m |
| Altitude | 12000 |
| Route | SANTY EDDYY SERFR4 |
| Aircraft | E75L/M-SDE3GILORVW/S |
Departure
| Time | 2026-05-06 19:47 |
|---|---|
| Airport | Monterey Regional Airport (KMRY) |
Arrival
| Time | 2026-05-06 20:04 |
|---|---|
| Airport | San Francisco International Airport (KSFO) |
| Time | Latitude | Longitude | Altitude | Speed | Heading |
|---|---|---|---|---|---|
| 2026-05-06 19:30 | 36.58720 | -121.84868 | 207 ft | 0 kts | 240° |
| 2026-05-06 19:38 | 36.58732 | -121.84843 | 211 ft | 4 kts | 223° |
| 2026-05-06 19:38 | 36.58752 | -121.84840 | 216 ft | 4 kts | 155° |
| 2026-05-06 19:38 | 36.58764 | -121.84865 | 218 ft | 4 kts | 104° |
| 2026-05-06 19:38 | 36.58769 | -121.84883 | 217 ft | 0 kts | 113° |
| 2026-05-06 19:43 | 36.58769 | -121.84882 | 217 ft | 0 kts | 113° |
| 2026-05-06 19:43 | 36.58763 | -121.84865 | 217 ft | 5 kts | 113° |
| 2026-05-06 19:43 | 36.58743 | -121.84806 | 216 ft | 10 kts | 113° |
| 2026-05-06 19:44 | 36.58707 | -121.84701 | 213 ft | 16 kts | 112° |
| 2026-05-06 19:44 | 36.58649 | -121.84572 | 216 ft | 18 kts | 116° |
| 2026-05-06 19:44 | 36.58599 | -121.84423 | 207 ft | 20 kts | 113° |
| 2026-05-06 19:44 | 36.58542 | -121.84257 | 211 ft | 22 kts | 113° |
| 2026-05-06 19:45 | 36.58481 | -121.84076 | 207 ft | 24 kts | 113° |
| 2026-05-06 19:45 | 36.58414 | -121.83878 | 212 ft | 26 kts | 112° |
| 2026-05-06 19:45 | 36.58342 | -121.83663 | 208 ft | 28 kts | 112° |
| 2026-05-06 19:45 | 36.58287 | -121.83465 | 209 ft | 20 kts | 92° |
| 2026-05-06 19:46 | 36.58334 | -121.83363 | 209 ft | 8 kts | 336° |
| 2026-05-06 19:46 | 36.58363 | -121.83438 | 210 ft | 20 kts | 291° |
| 2026-05-06 19:46 | 36.58532 | -121.83943 | 213 ft | 106 kts | 292° |
| 2026-05-06 19:46 | 36.58900 | -121.85047 | 510 ft | 153 kts | 293° |
| 2026-05-06 19:47 | 36.59318 | -121.86275 | 1598 ft | 158 kts | 297° |
| 2026-05-06 19:47 | 36.60038 | -121.87426 | 2261 ft | 179 kts | 323° |
| 2026-05-06 19:47 | 36.61180 | -121.88169 | 3021 ft | 193 kts | 340° |
| 2026-05-06 19:47 | 36.62473 | -121.88742 | 3823 ft | 203 kts | 341° |
| 2026-05-06 19:48 | 36.63836 | -121.89395 | 4731 ft | 216 kts | 338° |
| 2026-05-06 19:48 | 36.65296 | -121.90180 | 5547 ft | 238 kts | 337° |
| 2026-05-06 19:48 | 36.66898 | -121.91052 | 6348 ft | 262 kts | 338° |
| 2026-05-06 19:48 | 36.68586 | -121.91961 | 7406 ft | 272 kts | 338° |
| 2026-05-06 19:49 | 36.70327 | -121.92906 | 8622 ft | 273 kts | 338° |
| 2026-05-06 19:49 | 36.72085 | -121.93865 | 9804 ft | 277 kts | 338° |
| 2026-05-06 19:49 | 36.73892 | -121.94840 | 10700 ft | 291 kts | 339° |
| 2026-05-06 19:49 | 36.75820 | -121.95856 | 11338 ft | 309 kts | 339° |
| 2026-05-06 19:50 | 36.77828 | -121.96903 | 11932 ft | 322 kts | 339° |
| 2026-05-06 19:50 | 36.79950 | -121.97996 | 12016 ft | 340 kts | 339° |
| 2026-05-06 19:50 | 36.82168 | -121.99126 | 12025 ft | 348 kts | 339° |
| 2026-05-06 19:50 | 36.84424 | -122.00281 | 12028 ft | 352 kts | 339° |
| 2026-05-06 19:51 | 36.86703 | -122.01448 | 12024 ft | 354 kts | 339° |
| 2026-05-06 19:51 | 36.88962 | -122.02609 | 12029 ft | 354 kts | 339° |
| 2026-05-06 19:51 | 36.91242 | -122.03781 | 12013 ft | 355 kts | 339° |
| 2026-05-06 19:51 | 36.93527 | -122.04956 | 12003 ft | 354 kts | 339° |
| 2026-05-06 19:52 | 36.95813 | -122.06133 | 12007 ft | 355 kts | 339° |
| 2026-05-06 19:52 | 36.98128 | -122.07205 | 12011 ft | 350 kts | 347° |
| 2026-05-06 19:52 | 37.00440 | -122.07679 | 11970 ft | 324 kts | 356° |
| 2026-05-06 19:52 | 37.02621 | -122.07869 | 11938 ft | 307 kts | 358° |
| 2026-05-06 19:53 | 37.04782 | -122.08044 | 12084 ft | 325 kts | 357° |
| 2026-05-06 19:53 | 37.07071 | -122.08271 | 11694 ft | 328 kts | 356° |
| 2026-05-06 19:53 | 37.09330 | -122.08525 | 11472 ft | 324 kts | 356° |
| 2026-05-06 19:53 | 37.11586 | -122.08785 | 11043 ft | 326 kts | 356° |
| 2026-05-06 19:54 | 37.13840 | -122.09046 | 10581 ft | 323 kts | 355° |
| 2026-05-06 19:54 | 37.16037 | -122.09300 | 10147 ft | 318 kts | 355° |
| 2026-05-06 19:54 | 37.18223 | -122.09551 | 9718 ft | 314 kts | 355° |
| 2026-05-06 19:54 | 37.20396 | -122.09806 | 9323 ft | 312 kts | 355° |
| 2026-05-06 19:55 | 37.22563 | -122.10059 | 8890 ft | 312 kts | 355° |
| 2026-05-06 19:55 | 37.24703 | -122.10305 | 8464 ft | 301 kts | 355° |
| 2026-05-06 19:55 | 37.26683 | -122.10557 | 8043 ft | 277 kts | 355° |
| 2026-05-06 19:55 | 37.28562 | -122.10781 | 7682 ft | 258 kts | 355° |
| 2026-05-06 19:56 | 37.30270 | -122.10971 | 7381 ft | 242 kts | 355° |
| 2026-05-06 19:56 | 37.31905 | -122.11157 | 7075 ft | 230 kts | 355° |
| 2026-05-06 19:56 | 37.33465 | -122.11336 | 6784 ft | 219 kts | 355° |
| 2026-05-06 19:56 | 37.34964 | -122.11512 | 6500 ft | 213 kts | 355° |
| 2026-05-06 19:57 | 37.36417 | -122.11683 | 6228 ft | 210 kts | 355° |
| 2026-05-06 19:57 | 37.37874 | -122.11860 | 6013 ft | 215 kts | 354° |
| 2026-05-06 19:57 | 37.39347 | -122.12258 | 5709 ft | 219 kts | 345° |
| 2026-05-06 19:57 | 37.40808 | -122.12844 | 5382 ft | 222 kts | 343° |
| 2026-05-06 19:58 | 37.42262 | -122.13426 | 5079 ft | 224 kts | 344° |
| 2026-05-06 19:58 | 37.43760 | -122.13984 | 4784 ft | 224 kts | 345° |
| 2026-05-06 19:58 | 37.45241 | -122.14503 | 4434 ft | 218 kts | 346° |
| 2026-05-06 19:58 | 37.46660 | -122.14988 | 4148 ft | 207 kts | 346° |
| 2026-05-06 19:59 | 37.47571 | -122.15299 | 3971 ft | 201 kts | 347° |
| 2026-05-06 19:59 | 37.49313 | -122.15893 | 3655 ft | 190 kts | 346° |
| 2026-05-06 19:59 | 37.50573 | -122.16327 | 3456 ft | 188 kts | 346° |
| 2026-05-06 19:59 | 37.51842 | -122.16767 | 3240 ft | 189 kts | 345° |
| 2026-05-06 20:00 | 37.52632 | -122.17228 | 2998 ft | 191 kts | 323° |
| 2026-05-06 20:00 | 37.53936 | -122.18684 | 2659 ft | 189 kts | 311° |
| 2026-05-06 20:00 | 37.54603 | -122.20086 | 2397 ft | 185 kts | 294° |
| 2026-05-06 20:00 | 37.54948 | -122.21058 | 2242 ft | 184 kts | 296° |
| 2026-05-06 20:01 | 37.55550 | -122.22435 | 2045 ft | 175 kts | 300° |
| 2026-05-06 20:01 | 37.56143 | -122.23783 | 1826 ft | 176 kts | 297° |
| 2026-05-06 20:01 | 37.56682 | -122.25114 | 1892 ft | 171 kts | 297° |
| 2026-05-06 20:01 | 37.57261 | -122.26469 | 1869 ft | 180 kts | 297° |
| 2026-05-06 20:02 | 37.57844 | -122.27862 | 1433 ft | 176 kts | 297° |
| 2026-05-06 20:02 | 37.58388 | -122.29179 | 1203 ft | 163 kts | 297° |
| 2026-05-06 20:02 | 37.58900 | -122.30377 | 1009 ft | 147 kts | 297° |
| 2026-05-06 20:02 | 37.59346 | -122.31440 | 796 ft | 130 kts | 298° |
| 2026-05-06 20:03 | 37.59754 | -122.32434 | 579 ft | 131 kts | 295° |
| 2026-05-06 20:03 | 37.60160 | -122.33483 | 480 ft | 134 kts | 296° |
| 2026-05-06 20:03 | 37.60589 | -122.34507 | 311 ft | 131 kts | 300° |
| 2026-05-06 20:03 | 37.61027 | -122.35509 | 116 ft | 129 kts | 295° |
| 2026-05-06 20:04 | 37.61438 | -122.36476 | 27 ft | 116 kts | 296° |
| 2026-05-06 20:04 | 37.61771 | -122.37268 | 20 ft | 84 kts | 297° |
| 2026-05-06 20:04 | 37.61989 | -122.37791 | 20 ft | 58 kts | 298° |
| 2026-05-06 20:04 | 37.62157 | -122.38200 | 21 ft | 40 kts | 299° |
| 2026-05-06 20:05 | 37.62175 | -122.38334 | 21 ft | 10 kts | 208° |
| 2026-05-06 20:05 | 37.62106 | -122.38377 | 20 ft | 12 kts | 207° |
| 2026-05-06 20:05 | 37.62064 | -122.38416 | 21 ft | 5 kts | 252° |
| 2026-05-06 20:05 | 37.62073 | -122.38456 | 22 ft | 4 kts | 303° |
| 2026-05-06 20:06 | 37.62089 | -122.38499 | 20 ft | 6 kts | 282° |
| 2026-05-06 20:06 | 37.62083 | -122.38561 | 22 ft | 8 kts | 260° |
| 2026-05-06 20:06 | 37.62080 | -122.38605 | 20 ft | 5 kts | 268° |
| 2026-05-06 20:06 | 37.62080 | -122.38631 | 20 ft | 2 kts | 268° |
| 2026-05-06 20:07 | 37.62079 | -122.38642 | 20 ft | 0 kts | 267° |